Flight Track Log - Related Links

Times and Time Zones

All times are in EDT time to prevent confusion due to time zone crossing. See the FDX1570 flight status page for this flight to view local times or setup timezone preferences in your user account.

Time Position Orientation Groundspeed Altitude Reporting Facility
EDT Latitude Longitude Course Direction KTS MPH feet Rate Location/Type
Tue 04:25:25 AM 35.0167 -89.9667 168° South 181 208 1,000  Level KMEM
Tue 04:26:34 AM 34.9500 -89.9500 168° South 244 281 3,000 2,318 Climbing KMEM
Tue 04:27:37 AM 34.9167 -89.8833 121° Southeast 277 319 6,100 2,930 Climbing KMEM
Tue 04:28:43 AM 34.9500 -89.8000 64° Northeast 270 311 9,300 2,551 Climbing KMEM
Tue 04:29:44 AM 34.9992 -89.6981 59° Northeast 305 351 11,500 1,884 Climbing Memphis Center
Tue 04:30:44 AM 35.0425 -89.5936 63° Northeast 326 375 13,100 2,100 Climbing Memphis Center
Tue 04:31:44 AM 35.0919 -89.4817 62° Northeast 352 405 15,700 2,400 Climbing Memphis Center
Tue 04:32:44 AM 35.1431 -89.3642 62° Northeast 371 427 17,900 2,150 Climbing Memphis Center
Tue 04:33:44 AM 35.1942 -89.2442 62° Northeast 391 450 20,000 1,700 Climbing Memphis Center
Tue 04:34:44 AM 35.2578 -89.1289 56° Northeast 396 456 21,300 1,300 Climbing Memphis Center
Tue 04:35:44 AM 35.3294 -89.0108 53° Northeast 419 482 22,600 1,600 Climbing Memphis Center
Tue 04:36:44 AM 35.3931 -88.8978 55° Northeast 439 505 24,500 1,755 Climbing Memphis Center
Tue 04:42:07 AM 35.8000 -88.2290 55° Northeast 445 512 33,800 1,669 Climbing FlightAware ADS-B
Tue 04:42:47 AM 35.8490 -88.1490 53° Northeast 448 516 34,600 1,125 Climbing FlightAware ADS-B
Tue 04:43:27 AM 35.8980 -88.0670 54° Northeast 448 516 35,300 988 Climbing FlightAware ADS-B
Tue 04:44:12 AM 35.9530 -87.9730 54° Northeast 448 516 36,000 1,059 Climbing FlightAware ADS-B
Tue 04:44:52 AM 36.0020 -87.8910 54° Northeast 446 513 36,800 750 Climbing FlightAware ADS-B
Tue 04:45:32 AM 36.0530 -87.8040 54° Northeast 449 517 37,000 141 Climbing FlightAware ADS-B
Tue 04:46:17 AM 36.1070 -87.7120 54° Northeast 455 524 37,000  Level FlightAware ADS-B
Tue 04:46:57 AM 36.1560 -87.6300 53° Northeast 455 524 37,000  Level FlightAware ADS-B
Tue 04:47:42 AM 36.2130 -87.5310 54° Northeast 452 520 37,000  Level FlightAware ADS-B
Tue 04:48:22 AM 36.2610 -87.4490 54° Northeast 452 520 37,000  Level FlightAware ADS-B
Tue 04:49:07 AM 36.3150 -87.3550 54° Northeast 445 512 37,000  Level FlightAware ADS-B
Tue 04:49:47 AM 36.3630 -87.2750 53° Northeast 439 505 37,000  Level FlightAware ADS-B
Tue 04:50:27 AM 36.4110 -87.1910 55° Northeast 439 505 37,000  Level FlightAware ADS-B
Tue 04:51:12 AM 36.4650 -87.0970 54° Northeast 440 506 37,000  Level FlightAware ADS-B
Tue 04:51:52 AM 36.5120 -87.0170 54° Northeast 439 505 37,000  Level FlightAware ADS-B
Tue 04:52:37 AM 36.5640 -86.9240 55° Northeast 438 504 37,000  Level FlightAware ADS-B
Tue 04:53:17 AM 36.6120 -86.8420 54° Northeast 438 504 37,000  Level FlightAware ADS-B
Tue 04:54:00 AM 36.6647 -86.7490 55° Northeast 443 510 37,000  Level FlightAware ADS-B
Tue 04:54:32 AM 36.7032 -86.6825 54° Northeast 443 510 37,000  Level FlightAware ADS-B
Tue 04:55:02 AM 36.7391 -86.6200 54° Northeast 443 510 37,000  Level FlightAware ADS-B
Tue 04:55:33 AM 36.7749 -86.5576 54° Northeast 443 510 37,000  Level FlightAware ADS-B
Tue 04:56:03 AM 36.8112 -86.4927 55° Northeast 443 510 37,000  Level FlightAware ADS-B
Tue 04:56:34 AM 36.8475 -86.4279 55° Northeast 444 511 37,000  Level FlightAware ADS-B
Tue 04:57:05 AM 36.8842 -86.3630 55° Northeast 443 510 37,000  Level FlightAware ADS-B
Tue 04:57:36 AM 36.9209 -86.2982 55° Northeast 444 511 37,000  Level FlightAware ADS-B
Tue 04:58:09 AM 36.9595 -86.2291 55° Northeast 442 509 37,000  Level FlightAware ADS-B
Tue 04:58:39 AM 36.9952 -86.1663 55° Northeast 442 509 37,000  Level FlightAware ADS-B
Tue 04:59:12 AM 37.0300 -86.1040 55° Northeast 442 509 37,000  Level FlightAware ADS-B
Tue 04:59:53 AM 37.0824 -86.0109 55° Northeast 442 509 37,000  Level FlightAware ADS-B
Tue 05:00:32 AM 37.1260 -85.9330 55° Northeast 445 512 37,000  Level FlightAware ADS-B
Tue 05:01:03 AM 37.1645 -85.8631 55° Northeast 445 512 37,000  Level FlightAware ADS-B
Tue 05:02:17 AM 37.2490 -85.7120 55° Northeast 447 514 37,000  Level FlightAware ADS-B
Tue 05:02:54 AM 37.2953 -85.6287 55° Northeast 445 512 37,000  Level FlightAware ADS-B
Tue 05:03:31 AM 37.3398 -85.5474 55° Northeast 447 514 37,000  Level FlightAware ADS-B
Tue 05:04:13 AM 37.3891 -85.4578 55° Northeast 447 514 37,000  Level FlightAware ADS-B
Tue 05:04:44 AM 37.4243 -85.3940 55° Northeast 445 512 37,000  Level FlightAware ADS-B
Tue 05:05:14 AM 37.4598 -85.3279 56° Northeast 445 512 37,000  Level FlightAware ADS-B
Tue 05:05:44 AM 37.4953 -85.2637 55° Northeast 446 513 37,000  Level FlightAware ADS-B
Tue 05:06:16 AM 37.5322 -85.1953 56° Northeast 446 513 37,000  Level FlightAware ADS-B
Tue 05:06:47 AM 37.5686 -85.1289 55° Northeast 447 514 37,000  Level FlightAware ADS-B
Tue 05:07:18 AM 37.6047 -85.0622 56° Northeast 449 517 37,000  Level FlightAware ADS-B
Tue 05:07:48 AM 37.6405 -84.9972 55° Northeast 450 518 37,000  Level FlightAware ADS-B
Tue 05:08:23 AM 37.6816 -84.9213 56° Northeast 450 518 37,000  Level FlightAware ADS-B
Tue 05:09:07 AM 37.7290 -84.8340 56° Northeast 450 518 37,000  Level FlightAware ADS-B
Tue 05:09:57 AM 37.7900 -84.7210 56° Northeast 451 519 37,000  Level FlightAware ADS-B
Tue 05:10:29 AM 37.8288 -84.6469 56° Northeast 454 522 37,000  Level FlightAware ADS-B
Tue 05:11:02 AM 37.8685 -84.5738 55° Northeast 458 527 37,000  Level FlightAware ADS-B
Tue 05:11:47 AM 37.9218 -84.4740 56° Northeast 457 526 37,000  Level FlightAware ADS-B
Tue 05:12:47 AM 37.9910 -84.3440 56° Northeast 451 519 37,000  Level FlightAware ADS-B
Tue 05:13:42 AM 38.0530 -84.2280 56° Northeast 450 518 37,000  Level FlightAware ADS-B
Tue 05:14:17 AM 38.0930 -84.1510 57° Northeast 449 517 37,000  Level FlightAware ADS-B
Tue 05:15:02 AM 38.1390 -84.0650 56° Northeast 449 517 37,000  Level FlightAware ADS-B
Tue 05:15:42 AM 38.1910 -83.9650 56° Northeast 447 514 37,000  Level FlightAware ADS-B
Tue 05:16:27 AM 38.2370 -83.8770 56° Northeast 447 514 37,000  Level FlightAware ADS-B
Tue 05:17:07 AM 38.2770 -83.8030 55° Northeast 447 514 37,000  Level FlightAware ADS-B
Tue 05:17:52 AM 38.3380 -83.6850 57° Northeast 445 512 37,000  Level FlightAware ADS-B
Tue 05:18:32 AM 38.3850 -83.5930 57° Northeast 446 513 37,000  Level FlightAware ADS-B
Tue 05:19:17 AM 38.4310 -83.5060 56° Northeast 446 513 37,000  Level FlightAware ADS-B
Tue 05:19:57 AM 38.4710 -83.4310 56° Northeast 446 513 37,000  Level FlightAware ADS-B
Tue 05:20:37 AM 38.5100 -83.3570 56° Northeast 446 513 37,000  Level FlightAware ADS-B
Tue 05:21:17 AM 38.5490 -83.2830 56° Northeast 446 513 37,000  Level FlightAware ADS-B
Tue 05:22:07 AM 38.5980 -83.1900 56° Northeast 446 513 37,000  Level FlightAware ADS-B
Tue 05:22:47 AM 38.6760 -83.0300 58° Northeast 445 512 37,000  Level FlightAware ADS-B
Tue 05:23:27 AM 38.7220 -82.9400 57° Northeast 443 510 37,000  Level FlightAware ADS-B
Tue 05:24:12 AM 38.7690 -82.8450 58° Northeast 442 509 37,000  Level FlightAware ADS-B
Tue 05:24:52 AM 38.8170 -82.7510 57° Northeast 442 509 37,000  Level FlightAware ADS-B
Tue 05:25:37 AM 38.8650 -82.6560 57° Northeast 442 509 37,000  Level FlightAware ADS-B
Tue 05:26:17 AM 38.9110 -82.5660 57° Northeast 442 509 37,000  Level FlightAware ADS-B
Tue 05:26:57 AM 38.9550 -82.4770 58° Northeast 442 509 37,000  Level FlightAware ADS-B
Tue 05:27:42 AM 39.0030 -82.3800 57° Northeast 443 510 37,000  Level FlightAware ADS-B
Tue 05:28:22 AM 39.0480 -82.2920 57° Northeast 443 510 37,000  Level FlightAware ADS-B
Tue 05:29:07 AM 39.0980 -82.1920 57° Northeast 442 509 37,000  Level FlightAware ADS-B
Tue 05:29:47 AM 39.1430 -82.1010 57° Northeast 441 507 37,000  Level FlightAware ADS-B
Tue 05:30:27 AM 39.1870 -82.0120 57° Northeast 440 506 37,000  Level FlightAware ADS-B
Tue 05:31:12 AM 39.2370 -81.9100 58° Northeast 441 507 37,000  Level FlightAware ADS-B
Tue 05:31:52 AM 39.2790 -81.8260 57° Northeast 442 509 37,000  Level FlightAware ADS-B
Tue 05:32:37 AM 39.3300 -81.7210 58° Northeast 441 507 37,000  Level FlightAware ADS-B
Tue 05:33:17 AM 39.3730 -81.6340 57° Northeast 441 507 37,000  Level FlightAware ADS-B
Tue 05:34:02 AM 39.4230 -81.5310 58° Northeast 443 510 37,000  Level FlightAware ADS-B
Tue 05:34:42 AM 39.4640 -81.4460 58° Northeast 444 511 37,000  Level FlightAware ADS-B
Tue 05:35:22 AM 39.5060 -81.3600 58° Northeast 447 514 37,000  Level FlightAware ADS-B
Tue 05:35:52 AM 39.5410 -81.2870 58° Northeast 449 517 37,000  Level FlightAware ADS-B
Tue 05:36:32 AM 39.5860 -81.1960 57° Northeast 448 516 37,000  Level FlightAware ADS-B
Tue 05:37:17 AM 39.6360 -81.0890 59° Northeast 447 514 37,000  Level FlightAware ADS-B
Tue 05:37:57 AM 39.6790 -81.0020 57° Northeast 447 514 37,000  Level FlightAware ADS-B
Tue 05:38:22 AM 39.7060 -80.9450 58° Northeast 446 513 37,000  Level FlightAware ADS-B
Tue 05:39:02 AM 39.7490 -80.8540 58° Northeast 446 513 37,000  Level FlightAware ADS-B
Tue 05:39:42 AM 39.7930 -80.7610 58° Northeast 447 514 37,000  Level FlightAware ADS-B
Tue 05:40:27 AM 39.8430 -80.6580 58° Northeast 447 514 37,000  Level FlightAware ADS-B
Tue 05:41:07 AM 39.8870 -80.5630 59° Northeast 447 514 37,000  Level FlightAware ADS-B
Tue 05:41:47 AM 39.9290 -80.4740 58° Northeast 447 514 37,000  Level FlightAware ADS-B
Tue 05:42:32 AM 39.9770 -80.3730 58° Northeast 448 516 37,000  Level FlightAware ADS-B
Tue 05:43:12 AM 40.0190 -80.2830 59° Northeast 448 516 37,000  Level FlightAware ADS-B
Tue 05:44:02 AM 40.0740 -80.1650 59° Northeast 449 517 37,000  Level FlightAware ADS-B
Tue 05:44:52 AM 40.1280 -80.0490 59° Northeast 447 514 37,000  Level FlightAware ADS-B
Tue 05:45:32 AM 40.1700 -79.9570 59° Northeast 447 514 37,000  Level FlightAware ADS-B
Tue 05:46:12 AM 40.2140 -79.8620 59° Northeast 445 512 37,000  Level FlightAware ADS-B
Tue 05:46:57 AM 40.2630 -79.7560 59° Northeast 444 511 37,000  Level FlightAware ADS-B
Tue 05:47:37 AM 40.3050 -79.6640 59° Northeast 444 511 37,000  Level FlightAware ADS-B
Tue 05:48:22 AM 40.3510 -79.5650 59° Northeast 444 511 37,000  Level FlightAware ADS-B
Tue 05:49:02 AM 40.3940 -79.4720 59° Northeast 445 512 37,000  Level FlightAware ADS-B
Tue 05:49:47 AM 40.4410 -79.3680 59° Northeast 445 512 37,000  Level FlightAware ADS-B
Tue 05:50:27 AM 40.4810 -79.2790 59° Northeast 446 513 37,000  Level FlightAware ADS-B
Tue 05:51:12 AM 40.5290 -79.1720 59° Northeast 448 516 37,000  Level FlightAware ADS-B
Tue 05:51:52 AM 40.5710 -79.0810 59° Northeast 448 516 37,000  Level FlightAware ADS-B
Tue 05:52:27 AM 40.6040 -79.0060 60° Northeast 446 513 37,000  Level FlightAware ADS-B
Tue 05:54:12 AM 40.7140 -78.7610 59° Northeast 448 516 37,000  Level FlightAware ADS-B
Tue 05:54:52 AM 40.7550 -78.6700 59° Northeast 446 513 37,000  Level FlightAware ADS-B
Tue 05:55:36 AM 40.8103 -78.5430 60° Northeast 445 512 37,000  Level FlightAware ADS-B
Tue 05:56:17 AM 40.8420 -78.4700 60° Northeast 444 511 37,000  Level FlightAware ADS-B
Tue 05:56:52 AM 40.8760 -78.3960 59° Northeast 443 510 37,000  Level FlightAware ADS-B
Tue 05:57:42 AM 40.9320 -78.2690 60° Northeast 444 511 37,000  Level FlightAware ADS-B
Tue 05:58:27 AM 40.9780 -78.1630 60° Northeast 446 513 37,000  Level FlightAware ADS-B
Tue 05:59:07 AM 41.0190 -78.0680 60° Northeast 448 516 37,000  Level FlightAware ADS-B
Tue 05:59:47 AM 41.0590 -77.9750 60° Northeast 449 517 37,000 -282 Level FlightAware ADS-B
Tue 06:00:32 AM 41.1050 -77.8700 60° Northeast 448 516 36,600 -1,143 Descending FlightAware ADS-B
Tue 06:01:11 AM 41.1569 -77.7492 60° Northeast 457 526 35,400 -1,606 Descending FlightAware ADS-B
Tue 06:01:43 AM 41.1906 -77.6708 60° Northeast 458 527 34,700 -1,125 Descending FlightAware ADS-B
Tue 06:02:31 AM 41.2408 -77.5528 60° Northeast 462 532 33,900 -957 Descending FlightAware ADS-B
Tue 06:03:17 AM 41.2800 -77.4610 60° Northeast 465 535 33,200 -1,219 Descending FlightAware ADS-B
Tue 06:03:35 AM 41.3092 -77.3939 60° Northeast 467 537 32,600 -1,424 Descending FlightAware ADS-B
Tue 06:04:16 AM 41.3523 -77.2912 61° Northeast 469 540 31,800 -1,167 Descending FlightAware ADS-B
Tue 06:04:47 AM 41.3860 -77.2132 60° Northeast 469 540 31,200 -909 Descending FlightAware ADS-B
Tue 06:05:22 AM 41.4130 -77.1480 61° Northeast 469 540 30,800 -1,116 Descending FlightAware ADS-B
Tue 06:05:30 AM 41.4314 -77.1049 60° Northeast 469 540 30,400 -1,467 Descending FlightAware ADS-B
Tue 06:06:07 AM 41.4600 -77.0360 61° Northeast 473 544 29,700 -1,472 Descending FlightAware ADS-B
Tue 06:06:23 AM 41.4882 -76.9700 60° Northeast 476 548 29,100 -824 Descending FlightAware ADS-B
Tue 06:06:58 AM 41.5257 -76.8798 61° Northeast 482 555 29,000 -87 Descending FlightAware ADS-B
Tue 06:07:32 AM 41.5510 -76.8230 59° Northeast 481 554 29,000  Level FlightAware ADS-B
Tue 06:08:12 AM 41.5970 -76.7090 62° Northeast 479 551 29,000 -133 Level FlightAware ADS-B
Tue 06:08:17 AM 41.6116 -76.6782 58° Northeast 482 555 28,900 -900 Descending FlightAware ADS-B
Tue 06:08:52 AM 41.6460 -76.6100 56° Northeast 479 551 28,400 -1,220 Descending FlightAware ADS-B
Tue 06:09:16 AM 41.6909 -76.5362 51° Northeast 480 552 27,700 -1,527 Descending FlightAware ADS-B
Tue 06:09:47 AM 41.7347 -76.4641 51° Northeast 484 557 27,000 -1,406 Descending FlightAware ADS-B
Tue 06:10:20 AM 41.7809 -76.3870 51° Northeast 484 557 26,200 -1,338 Descending FlightAware ADS-B
Tue 06:11:57 AM 41.9160 -76.1650 51° Northeast 482 555 24,100 -1,000 Descending FlightAware ADS-B
Tue 06:12:32 AM 41.9590 -76.0930 51° Northeast 449 517 24,000 -23 Descending FlightAware ADS-B
Tue 06:16:22 AM 42.2480 -75.5770 53° Northeast 457 526 24,000  Level FlightAware ADS-B
Tue 06:17:02 AM 42.2780 -75.4770 68° East 457 526 24,000 -141 Level FlightAware ADS-B
Tue 06:17:47 AM 42.3160 -75.3490 68° East 458 527 23,800 -975 Descending FlightAware ADS-B
Tue 06:18:22 AM 42.3400 -75.2640 69° East 450 518 22,700 -825 Descending FlightAware ADS-B
Tue 06:19:07 AM 42.3720 -75.1560 68° East 450 518 22,700  Level FlightAware ADS-B
Tue 06:19:47 AM 42.3990 -75.0670 68° East 450 518 22,700  Level FlightAware ADS-B
Tue 06:20:37 AM 42.4320 -74.9560 68° East 450 518 22,700  Level FlightAware ADS-B
Tue 06:21:07 AM 42.4520 -74.8890 68° East 450 518 22,700  Level FlightAware ADS-B
Tue 06:21:57 AM 42.4850 -74.7780 68° East 450 518 22,700 -6,466 Level FlightAware ADS-B
Tue 06:22:50 AM 42.5189 -74.6289 68° East 394 453 11,600 -6,319 Descending Boston Center
Tue 06:23:50 AM 42.5569 -74.4950 69° East 352 405 10,800 -800 Descending Boston Center
Tue 06:24:50 AM 42.5836 -74.3972 70° East 310 357 10,000 -950 Descending Boston Center
Tue 06:25:50 AM 42.6372 -74.3083 51° Northeast 275 316 8,900 -1,000 Descending Boston Center
Tue 06:26:50 AM 42.6800 -74.2336 52° Northeast 275 316 8,000 -1,150 Descending Boston Center
Tue 06:27:50 AM 42.7314 -74.1503 50° Northeast 270 311 6,600 -1,150 Descending Boston Center
Tue 06:28:50 AM 42.7678 -74.0889 51° Northeast 265 305 5,700 -1,200 Descending Boston Center
Tue 06:29:50 AM 42.8169 -74.0053 51° Northeast 260 299 4,200 -1,200 Descending Boston Center
Tue 06:30:50 AM 42.8639 -73.9244 52° Northeast 260 299 3,300 -750 Descending Boston Center
Tue 06:31:50 AM 42.8978 -73.8658 52° Northeast 213 245 2,700 -650 Descending Boston Center
Tue 06:32:50 AM 42.8714 -73.8169 126° Southeast 136 157 2,000 -400 Descending Boston Center
Tue 06:33:50 AM 42.8425 -73.7992 156° South 136 157 1,900 -516 Descending Boston Center
Tue 06:34:58 AM 42.7903 -73.8094 188° South 117 135 900 -882 Descending Boston Center
Tue 06:36:00 AM 42.7491 -73.8020 168° South  Level Estimated

Login

Don't have an account? Register now (free) for customized features, flight alerts, and more!